KMSY

Louis Armstrong New Orleans International Airport

New Orleans, Louisiana, USA
METAR KMSY 271153Z COR 05003KT 10SM FEW030 SCT250 25/23 A2983 RMK AO2 SLP104 T02500233 10250 20211 53006
Observed Flight Rules
May-27 @ 11:53 UTC (13 minutes ago) Visual Flight Rules
Wind Visibility Clouds
50° at 3 knots 10 miles
  • Few at 3,000' AGL
  • Scattered at 25,000' AGL
Temperatures Readings
Current 25°C / 77°F
Dewpoint 23°C / 73°F
Humidity 89%
Altimeter 29.83" Hg
Pressure 1010.4 hPa
Elevation 5
METAR KMSY 271153Z COR 05003KT 10SM FEW030 SCT250 25/23 A2983 RMK AO2 SLP104 T02500233 10250 20211 53006
Observed Flight Rules
May-27 @ 11:53 UTC
(13 minutes ago)
VFR
Wind Visibility
50° at 3 knots 10 miles
Clouds
  • Few at 3,000' AGL
  • Scattered at 25,000' AGL
Temperature Dewpoint
25°C / 77°F 23°C / 73°F
Humidity Altimeter Pressure
89% 29.83" Hg 1010.4 hPa